Terminal Aerodrome Forecast
Issued by NWS Topeka, KS

Home | Current Version | Previous Version | Text Only | Print | Product List | Glossary Off
Versions: 1 2 3 4 5 6 7 8 9 10 11 12 13 14 15

000
FTUS43 KTOP 241720
TAFTOP
TAF
KTOP 241720Z 2418/2518 18022G34KT P6SM BKN250
     FM242300 18016G24KT P6SM BKN250
     FM250200 17009KT P6SM SCT250
     FM250500 15008KT P6SM BKN150 WS020/19045KT
     FM251200 15010KT P6SM BKN090=

USA.gov is the U.S. government's official web portal to all federal, state and local government web resources and services.